Time;durP1;ratioP1;P1;durP2;ratioP2;P2;SDS_P1;SDS_P2;PMS_P1;PMS_P2;Temp;Humidity;BMP_temperature;BMP_pressure;BME280_temperature;BME280_humidity;BME280_pressure;Samples;Min_cycle;Max_cycle;Signal;HPM_P1;HPM_P2
2022/01/18 00:01:53;;;;;;;11.70;3.90;;;;;;;-0.33;74.33;100889.29;129986;1270;108735;-75
2022/01/18 00:04:58;;;;;;;12.30;4.10;;;;;;;-0.35;74.39;100886.75;130008;1270;108870;-75
2022/01/18 00:08:04;;;;;;;13.70;4.00;;;;;;;-0.41;74.16;100892.42;130205;1270;108745;-75
2022/01/18 00:11:09;;;;;;;12.00;4.40;;;;;;;-0.50;74.70;100901.02;130006;1269;108924;-73
2022/01/18 00:14:24;;;;;;;11.20;4.20;;;;;;;-0.58;74.71;100910.80;129980;1270;108810;-74
2022/01/18 00:17:40;;;;;;;12.80;4.80;;;;;;;-0.64;74.80;100910.54;130186;1270;107855;-74
2022/01/18 00:20:56;;;;;;;16.20;4.80;;;;;;;-0.72;75.04;100910.50;130247;1270;107305;-74
2022/01/18 00:24:02;;;;;;;12.00;4.60;;;;;;;-0.82;75.02;100912.86;130111;1270;108510;-75
2022/01/18 00:27:12;;;;;;;14.30;4.80;;;;;;;-0.90;75.20;100916.66;130125;1270;108773;-75
2022/01/18 00:30:37;;;;;;;11.40;3.60;;;;;;;-0.93;75.29;100915.95;130196;1270;108761;-73
2022/01/18 00:33:53;;;;;;;13.10;4.10;;;;;;;-0.89;75.31;100921.01;130216;1270;109733;-75
2022/01/18 00:37:12;;;;;;;17.00;5.30;;;;;;;-0.85;75.48;100916.30;130154;1270;107433;-71
2022/01/18 00:40:18;;;;;;;15.10;5.20;;;;;;;-0.81;75.69;100915.96;130136;1270;108744;-74
2022/01/18 00:43:24;;;;;;;14.60;4.60;;;;;;;-0.79;75.53;100913.09;130223;1270;107695;-73
2022/01/18 00:46:29;;;;;;;11.10;4.70;;;;;;;-0.85;75.41;100918.73;130199;1269;106784;-74
2022/01/18 00:49:40;;;;;;;16.40;5.20;;;;;;;-0.88;75.65;100932.14;130218;1270;108741;-74
2022/01/18 00:52:50;;;;;;;11.40;4.20;;;;;;;-0.96;75.67;100935.98;130186;1270;107701;-73
2022/01/18 00:56:10;;;;;;;12.20;4.30;;;;;;;-1.03;75.63;100938.00;129985;1270;108581;-74
2022/01/18 00:59:16;;;;;;;10.70;4.40;;;;;;;-1.09;75.66;100939.98;130165;1270;107197;-72
2022/01/18 01:02:21;;;;;;;11.30;4.10;;;;;;;-1.14;76.06;100945.95;130029;1270;108816;-72
2022/01/18 01:05:27;;;;;;;11.80;3.80;;;;;;;-1.16;76.00;100951.45;129963;1270;108594;-74
2022/01/18 01:08:34;;;;;;;11.20;4.10;;;;;;;-1.13;76.09;100952.34;130094;1270;108834;-75
2022/01/18 01:11:40;;;;;;;10.80;4.00;;;;;;;-1.11;75.99;100953.86;130221;1270;108981;-75
2022/01/18 01:14:46;;;;;;;11.70;4.20;;;;;;;-1.11;76.41;100963.98;130129;1270;108747;-74
2022/01/18 01:18:07;;;;;;;12.30;5.10;;;;;;;-1.13;76.24;100970.17;129971;1270;108847;-75
2022/01/18 01:34:45;;;;;;;10.90;3.90;;;;;;;-1.30;77.54;100998.59;130053;1270;108409;-75
2022/01/18 01:44:47;;;;;;;10.60;3.60;;;;;;;-1.37;78.36;101000.60;130078;1270;108574;-74
2022/01/18 01:47:54;;;;;;;10.50;4.40;;;;;;;-1.44;78.79;100986.74;130085;1270;108864;-74
2022/01/18 01:51:03;;;;;;;15.00;4.50;;;;;;;-1.45;78.91;100986.61;129965;1269;107423;-74
2022/01/18 01:54:10;;;;;;;10.90;4.50;;;;;;;-1.44;78.79;100992.51;130010;1270;108493;-74
2022/01/18 01:57:16;;;;;;;17.90;6.00;;;;;;;-1.44;79.32;100997.02;129984;1270;108941;-75
2022/01/18 02:00:22;;;;;;;11.60;4.40;;;;;;;-1.43;79.26;100999.10;129993;1270;108762;-74
2022/01/18 02:03:28;;;;;;;14.20;3.80;;;;;;;-1.45;79.14;100992.54;130160;1270;107731;-73
2022/01/18 02:06:34;;;;;;;12.20;4.50;;;;;;;-1.46;79.28;100989.98;130207;1270;108870;-73
2022/01/18 02:09:39;;;;;;;16.80;5.30;;;;;;;-1.46;79.27;100993.61;130112;1269;110302;-74
2022/01/18 02:12:44;;;;;;;14.50;4.00;;;;;;;-1.41;78.98;100988.88;130014;1270;108968;-75
2022/01/18 02:16:12;;;;;;;16.10;4.50;;;;;;;-1.36;79.02;100986.77;130251;1270;108980;-77
2022/01/18 02:22:37;;;;;;;;;;;;;;;-1.41;78.97;100985.73;130001;1270;108993;-74
2022/01/18 02:25:42;;;;;;;15.40;4.90;;;;;;;-1.43;79.99;100991.94;129997;1270;108683;-74
2022/01/18 02:28:47;;;;;;;13.10;4.40;;;;;;;-1.49;79.71;100989.70;129991;1270;107698;-74
2022/01/18 02:31:54;;;;;;;12.60;4.20;;;;;;;-1.52;80.08;100994.19;130095;1270;108794;-75
2022/01/18 02:35:00;;;;;;;12.00;4.20;;;;;;;-1.48;80.33;100994.92;130029;1269;108637;-74
2022/01/18 02:38:06;;;;;;;14.10;4.20;;;;;;;-1.46;79.96;100997.29;130020;1270;108774;-74
2022/01/18 02:41:24;;;;;;;14.30;4.80;;;;;;;-1.44;80.37;101000.33;130030;1270;108666;-75
2022/01/18 02:44:31;;;;;;;11.90;3.80;;;;;;;-1.43;80.08;101000.64;129992;1270;109725;-75
2022/01/18 02:47:36;;;;;;;15.50;4.20;;;;;;;-1.44;79.93;100997.04;130054;1270;108593;-76
2022/01/18 02:50:42;;;;;;;17.70;5.20;;;;;;;-1.44;79.74;100998.95;130181;1269;108763;-75
2022/01/18 02:54:03;;;;;;;13.40;4.40;;;;;;;-1.48;80.09;101001.02;130188;1270;107744;-74
2022/01/18 02:57:12;;;;;;;9.80;3.80;;;;;;;-1.52;80.20;101003.97;130180;1270;106898;-74
2022/01/18 03:00:25;;;;;;;12.70;4.60;;;;;;;-1.49;80.42;101009.42;130246;1270;109062;-74
2022/01/18 03:03:31;;;;;;;28.50;6.00;;;;;;;-1.47;80.33;101007.61;130265;1270;109695;-77
2022/01/18 03:06:37;;;;;;;15.20;5.80;;;;;;;-1.45;80.77;101008.95;130373;1270;108660;-77
2022/01/18 03:09:42;;;;;;;10.30;4.50;;;;;;;-1.48;80.44;101007.98;130288;1270;108877;-77
2022/01/18 03:12:48;;;;;;;10.60;3.80;;;;;;;-1.47;80.53;101008.14;130101;1270;106693;-79
2022/01/18 03:15:53;;;;;;;15.50;4.90;;;;;;;-1.48;80.63;101016.35;130001;1270;109276;-77
2022/01/18 03:18:59;;;;;;;14.30;3.30;;;;;;;-1.53;81.26;101022.84;130070;1270;108834;-77
2022/01/18 03:22:06;;;;;;;14.80;3.40;;;;;;;-1.54;81.55;101032.50;130126;1270;108646;-79
2022/01/18 03:25:26;;;;;;;19.80;5.60;;;;;;;-1.54;82.16;101042.95;130055;1270;109820;-78
2022/01/18 03:28:32;;;;;;;12.40;4.00;;;;;;;-1.53;81.49;101049.70;130076;1269;108708;-77
2022/01/18 03:31:38;;;;;;;26.50;8.20;;;;;;;-1.52;81.95;101051.08;130028;1270;109062;-77
2022/01/18 03:34:43;;;;;;;12.20;3.50;;;;;;;-1.55;82.28;101055.39;130071;1269;108746;-77
2022/01/18 03:37:48;;;;;;;14.20;3.70;;;;;;;-1.59;82.70;101053.05;130582;1270;109188;-77
2022/01/18 03:40:54;;;;;;;12.40;4.20;;;;;;;-1.61;82.83;101050.35;130079;1270;108787;-76
2022/01/18 03:43:59;;;;;;;19.10;6.30;;;;;;;-1.57;82.34;101052.14;130248;1270;108793;-78
2022/01/18 03:47:05;;;;;;;12.20;3.30;;;;;;;-1.55;82.43;101059.20;130321;1270;108846;-76
2022/01/18 03:50:13;;;;;;;13.00;4.10;;;;;;;-1.54;82.15;101053.45;130295;1270;108932;-77
2022/01/18 03:53:20;;;;;;;15.10;5.10;;;;;;;-1.56;81.95;101062.77;130451;1270;108403;-78
2022/01/18 03:56:26;;;;;;;10.90;3.00;;;;;;;-1.59;82.70;101056.39;130536;1270;108985;-76
2022/01/18 03:59:33;;;;;;;12.80;4.40;;;;;;;-1.61;82.69;101062.38;130471;1270;108780;-80
2022/01/18 04:02:38;;;;;;;13.30;3.60;;;;;;;-1.59;83.24;101067.20;130203;1270;108751;-80
2022/01/18 04:05:44;;;;;;;22.00;7.10;;;;;;;-1.56;83.37;101066.76;129977;1270;162923;-80
2022/01/18 04:08:49;;;;;;;13.40;4.50;;;;;;;-1.59;83.38;101063.88;130020;1270;108811;-79
2022/01/18 04:11:55;;;;;;;16.80;5.30;;;;;;;-1.61;83.72;101062.75;130017;1270;108648;-79
2022/01/18 04:15:01;;;;;;;13.90;4.50;;;;;;;-1.65;83.98;101066.70;130062;1270;108623;-79
2022/01/18 04:18:23;;;;;;;18.40;6.20;;;;;;;-1.66;84.57;101068.66;130022;1270;108770;-79
2022/01/18 04:28:23;;;;;;;30.40;7.40;;;;;;;-1.62;84.19;101097.50;130198;1270;108795;-79
2022/01/18 04:31:30;;;;;;;15.80;5.30;;;;;;;-1.63;83.95;101106.59;130185;1271;108517;-75
2022/01/18 04:34:36;;;;;;;19.40;5.50;;;;;;;-1.62;84.59;101099.75;130164;1271;107592;-78
2022/01/18 04:37:41;;;;;;;30.50;9.70;;;;;;;-1.58;84.32;101102.94;130328;1271;108598;-80
2022/01/18 04:40:48;;;;;;;19.20;5.60;;;;;;;-1.56;84.58;101099.39;130221;1270;106904;-80
2022/01/18 04:44:10;;;;;;;19.90;6.20;;;;;;;-1.55;84.09;101098.63;130174;1271;108689;-80
2022/01/18 04:50:38;;;;;;;10.60;3.50;;;;;;;-1.59;84.53;101102.27;130328;1271;108802;-78
2022/01/18 04:53:51;;;;;;;10.80;3.80;;;;;;;-1.56;84.53;101100.78;130163;1271;108748;-79
2022/01/18 05:00:20;;;;;;;15.00;3.10;;;;;;;-1.53;84.21;101118.81;130220;1271;108814;-79
2022/01/18 05:03:25;;;;;;;10.60;3.60;;;;;;;-1.53;83.96;101127.90;130260;1271;107871;-82
2022/01/18 05:06:30;;;;;;;9.40;3.10;;;;;;;-1.56;83.91;101134.95;130187;1271;108672;-81
2022/01/18 05:09:36;;;;;;;13.50;3.80;;;;;;;-1.55;83.60;101136.17;130200;1270;108635;-79
2022/01/18 05:12:46;;;;;;;14.70;3.20;;;;;;;-1.50;83.69;101141.91;130159;1271;108971;-80
2022/01/18 05:16:00;;;;;;;9.60;3.00;;;;;;;-1.47;83.97;101154.17;130303;1271;108653;-80
2022/01/18 05:19:13;;;;;;;9.50;3.10;;;;;;;-1.48;84.27;101164.71;130253;1271;108862;-81
2022/01/18 05:25:44;;;;;;;10.30;3.60;;;;;;;-1.61;84.28;101178.92;130021;1270;108791;-79
2022/01/18 05:28:50;;;;;;;13.10;3.10;;;;;;;-1.65;84.32;101186.73;130173;1270;109320;-80
2022/01/18 05:31:56;;;;;;;10.80;2.70;;;;;;;-1.64;84.16;101195.08;130225;1270;107590;-79
2022/01/18 05:35:01;;;;;;;11.80;3.20;;;;;;;-1.60;84.91;101202.60;130236;1270;108815;-80
2022/01/18 05:38:07;;;;;;;12.70;3.40;;;;;;;-1.60;84.64;101197.20;130086;1270;108672;-80
2022/01/18 05:41:13;;;;;;;10.10;2.90;;;;;;;-1.60;84.55;101193.91;130101;1270;109001;-83
2022/01/18 05:44:19;;;;;;;14.90;3.90;;;;;;;-1.63;85.02;101192.59;130065;1270;108658;-81
2022/01/18 05:47:25;;;;;;;12.10;3.20;;;;;;;-1.65;84.42;101192.67;130158;1269;107834;-80
2022/01/18 05:50:30;;;;;;;13.20;2.90;;;;;;;-1.64;84.87;101194.39;130272;1268;107275;-80
2022/01/18 05:53:39;;;;;;;9.40;2.70;;;;;;;-1.62;84.92;101199.38;130186;1270;108750;-80
2022/01/18 05:56:44;;;;;;;11.80;2.80;;;;;;;-1.61;85.58;101205.63;130238;1271;108461;-80
2022/01/18 05:59:50;;;;;;;9.90;3.20;;;;;;;-1.62;84.90;101215.59;130140;1269;108780;-79
2022/01/18 06:03:11;;;;;;;9.70;3.40;;;;;;;-1.62;84.98;101222.41;130344;1271;106795;-79
2022/01/18 06:09:35;;;;;;;15.60;5.00;;;;;;;-1.73;85.79;101229.55;130299;1270;108812;-79
2022/01/18 06:12:41;;;;;;;14.90;5.30;;;;;;;-1.71;85.34;101234.91;130004;1271;107675;-80
2022/01/18 06:15:47;;;;;;;12.80;3.60;;;;;;;-1.69;85.76;101239.56;130041;1270;108481;-80
2022/01/18 06:18:53;;;;;;;17.70;5.80;;;;;;;-1.66;85.05;101250.96;130156;1270;109733;-79
2022/01/18 06:21:58;;;;;;;16.70;7.70;;;;;;;-1.66;85.52;101255.14;130272;1270;108738;-80
2022/01/18 06:25:04;;;;;;;12.00;3.90;;;;;;;-1.68;85.69;101260.63;130085;1271;107767;-80
2022/01/18 06:28:10;;;;;;;12.00;4.00;;;;;;;-1.72;85.67;101261.48;130418;1270;109064;-76
2022/01/18 06:31:16;;;;;;;16.40;4.40;;;;;;;-1.72;86.06;101268.61;130367;1271;108674;-77
2022/01/18 06:34:21;;;;;;;16.10;7.30;;;;;;;-1.66;85.44;101276.08;129987;1271;108751;-76
2022/01/18 06:37:26;;;;;;;23.10;8.90;;;;;;;-1.56;85.78;101275.42;130013;1270;108803;-76
2022/01/18 06:40:32;;;;;;;23.80;8.00;;;;;;;-1.50;85.24;101277.66;130003;1271;108704;-77
2022/01/18 06:43:37;;;;;;;17.00;6.70;;;;;;;-1.49;85.55;101276.06;129976;1270;108895;-76
2022/01/18 06:46:43;;;;;;;23.30;8.90;;;;;;;-1.51;85.37;101281.53;130035;1271;108854;-77
2022/01/18 06:49:49;;;;;;;108.70;56.10;;;;;;;-1.54;85.44;101289.16;129988;1270;108768;-77
2022/01/18 06:52:54;;;;;;;14.70;5.60;;;;;;;-1.53;85.77;101298.36;129796;1270;109157;-77
2022/01/18 06:56:02;;;;;;;16.00;5.10;;;;;;;-1.52;85.91;101297.63;129976;1270;109852;-77
2022/01/18 06:59:08;;;;;;;14.70;6.00;;;;;;;-1.45;85.01;101296.34;129963;1270;109148;-77
2022/01/18 07:02:13;;;;;;;42.00;16.80;;;;;;;-1.36;84.91;101296.05;130303;1271;108705;-77
2022/01/18 07:05:19;;;;;;;80.90;33.60;;;;;;;-1.36;84.77;101295.18;130031;1271;108733;-77
2022/01/18 07:08:24;;;;;;;64.20;22.90;;;;;;;-1.37;84.73;101299.05;130070;1271;108587;-77
2022/01/18 07:11:30;;;;;;;13.50;4.30;;;;;;;-1.36;84.83;101300.73;129952;1271;107735;-77
2022/01/18 07:14:35;;;;;;;17.60;5.50;;;;;;;-1.33;85.29;101305.38;129987;1271;109014;-77
2022/01/18 07:17:41;;;;;;;15.40;6.00;;;;;;;-1.35;85.42;101306.66;130229;1270;108244;-77
2022/01/18 07:20:46;;;;;;;25.80;8.10;;;;;;;-1.34;85.57;101312.90;130225;1271;108974;-77
2022/01/18 07:23:58;;;;;;;18.40;6.30;;;;;;;-1.31;85.17;101312.30;129988;1271;108661;-77
2022/01/18 07:27:04;;;;;;;16.20;5.10;;;;;;;-1.27;85.00;101316.16;129982;1271;108672;-77
2022/01/18 07:30:12;;;;;;;29.60;11.70;;;;;;;-1.30;85.16;101316.62;129964;1270;108831;-76
2022/01/18 07:33:19;;;;;;;27.90;11.00;;;;;;;-1.25;85.17;101325.72;129962;1271;108781;-77
2022/01/18 07:36:24;;;;;;;14.20;5.50;;;;;;;-1.18;85.43;101327.74;129990;1270;108682;-77
2022/01/18 07:39:30;;;;;;;19.20;6.00;;;;;;;-1.09;85.06;101328.15;129976;1271;108919;-77
2022/01/18 07:42:35;;;;;;;28.50;12.30;;;;;;;-1.05;84.95;101338.12;130016;1270;108771;-77
2022/01/18 07:45:42;;;;;;;22.10;8.80;;;;;;;-0.98;84.96;101342.80;130265;1271;107907;-76
2022/01/18 07:48:48;;;;;;;20.90;7.70;;;;;;;-0.93;84.76;101353.80;130291;1270;107680;-77
2022/01/18 07:51:53;;;;;;;54.30;23.20;;;;;;;-0.93;84.77;101352.57;130147;1271;108865;-77
2022/01/18 07:54:58;;;;;;;43.50;17.70;;;;;;;-0.93;85.28;101356.57;129980;1270;108920;-76
2022/01/18 07:58:04;;;;;;;16.60;5.90;;;;;;;-0.93;85.51;101363.94;130184;1271;109610;-77
2022/01/18 08:01:09;;;;;;;14.90;6.50;;;;;;;-0.90;85.42;101373.25;130195;1271;108689;-77
2022/01/18 08:04:15;;;;;;;17.50;6.60;;;;;;;-0.84;85.21;101375.84;130127;1271;108939;-77
2022/01/18 08:07:20;;;;;;;15.80;6.10;;;;;;;-0.79;85.32;101385.11;130244;1271;108666;-76
2022/01/18 08:10:30;;;;;;;15.50;5.70;;;;;;;-0.77;85.57;101391.52;130114;1270;106968;-77
2022/01/18 08:13:39;;;;;;;40.20;14.40;;;;;;;-0.76;85.27;101395.14;130019;1271;106696;-77
2022/01/18 08:16:59;;;;;;;68.80;21.90;;;;;;;-0.71;85.42;101397.23;130019;1271;108600;-77
2022/01/18 08:20:06;;;;;;;108.80;42.20;;;;;;;-0.58;85.06;101405.70;129970;1270;108914;-77
2022/01/18 08:23:11;;;;;;;102.60;49.90;;;;;;;-0.46;85.07;101407.54;130043;1270;108547;-77
2022/01/18 08:26:17;;;;;;;27.90;11.40;;;;;;;-0.43;84.65;101402.73;130166;1270;109135;-76
2022/01/18 08:29:23;;;;;;;19.50;7.60;;;;;;;-0.42;84.76;101411.43;129959;1270;108759;-77
2022/01/18 08:32:28;;;;;;;24.70;9.20;;;;;;;-0.42;84.58;101418.77;129976;1270;108869;-77
2022/01/18 08:35:36;;;;;;;18.10;7.20;;;;;;;-0.44;84.82;101420.92;129986;1270;108832;-77
2022/01/18 08:38:41;;;;;;;14.10;5.70;;;;;;;-0.38;84.80;101434.73;129930;1270;106947;-77
2022/01/18 08:41:47;;;;;;;15.80;5.40;;;;;;;-0.33;84.57;101434.53;129958;1270;107780;-76
2022/01/18 08:44:52;;;;;;;12.50;5.20;;;;;;;-0.27;84.51;101436.41;129995;1270;108576;-76
2022/01/18 08:47:58;;;;;;;13.60;4.90;;;;;;;-0.26;84.36;101437.28;129978;1270;108743;-77
2022/01/18 08:51:03;;;;;;;16.10;5.50;;;;;;;-0.26;84.49;101442.88;129985;1270;108761;-77
2022/01/18 08:54:09;;;;;;;35.80;14.60;;;;;;;-0.25;84.36;101441.77;129933;1270;109658;-77
2022/01/18 08:57:15;;;;;;;14.60;5.60;;;;;;;-0.19;84.39;101455.54;129980;1270;108763;-78
2022/01/18 09:00:21;;;;;;;21.60;8.40;;;;;;;-0.15;84.35;101461.36;130065;1270;108656;-77
2022/01/18 09:03:27;;;;;;;51.00;24.20;;;;;;;-0.09;84.31;101472.00;130118;1269;108682;-77
2022/01/18 09:06:32;;;;;;;16.80;5.60;;;;;;;-0.05;84.44;101476.22;129989;1270;108944;-77
2022/01/18 09:09:42;;;;;;;26.30;12.30;;;;;;;-0.05;84.20;101480.59;130227;1269;108617;-77
2022/01/18 09:12:47;;;;;;;13.10;5.20;;;;;;;0.00;84.13;101486.52;130261;1270;108643;-76
2022/01/18 09:15:53;;;;;;;19.50;8.30;;;;;;;0.05;84.08;101488.96;130113;1270;108829;-77
2022/01/18 09:18:59;;;;;;;19.10;7.90;;;;;;;0.11;83.92;101498.38;130158;1270;107152;-76
2022/01/18 09:22:05;;;;;;;19.50;7.00;;;;;;;0.17;83.79;101493.27;130029;1270;108913;-77
2022/01/18 09:25:14;;;;;;;15.60;5.70;;;;;;;0.24;83.85;101491.79;130090;1270;108675;-76
2022/01/18 09:28:19;;;;;;;18.40;8.00;;;;;;;0.28;83.80;101493.95;130217;1269;107878;-76
2022/01/18 09:31:24;;;;;;;15.50;6.30;;;;;;;0.39;83.65;101495.77;130132;1270;108997;-76
2022/01/18 09:34:30;;;;;;;43.00;13.60;;;;;;;0.47;83.06;101501.09;130064;1269;108943;-77
2022/01/18 09:37:36;;;;;;;55.30;15.70;;;;;;;0.54;83.05;101505.21;130191;1270;108688;-76
2022/01/18 09:40:43;;;;;;;36.80;11.10;;;;;;;0.56;82.99;101501.96;130235;1270;107303;-75
2022/01/18 09:43:49;;;;;;;23.80;7.50;;;;;;;0.61;83.06;101514.92;130241;1270;107768;-76
2022/01/18 09:46:56;;;;;;;28.80;8.20;;;;;;;0.58;82.71;101515.38;130177;1270;108962;-76
2022/01/18 09:50:01;;;;;;;14.10;5.60;;;;;;;0.58;82.68;101526.93;130037;1270;108771;-77
2022/01/18 09:53:09;;;;;;;25.00;8.00;;;;;;;0.63;82.83;101524.13;130004;1270;109125;-77
2022/01/18 09:56:15;;;;;;;15.60;5.90;;;;;;;0.72;82.73;101528.88;130037;1270;108771;-77
2022/01/18 09:59:21;;;;;;;16.80;6.20;;;;;;;0.71;82.40;101536.97;129979;1270;108912;-80
2022/01/18 10:02:26;;;;;;;19.50;7.60;;;;;;;0.72;82.55;101544.48;129984;1270;108872;-76
2022/01/18 10:05:33;;;;;;;15.90;6.20;;;;;;;0.74;82.22;101547.20;129990;1270;108735;-78
2022/01/18 10:08:41;;;;;;;17.90;6.60;;;;;;;0.75;82.36;101553.42;130156;1270;108955;-77
2022/01/18 10:12:10;;;;;;;13.80;6.60;;;;;;;0.79;82.35;101553.64;130023;1270;107426;-75
2022/01/18 10:15:20;;;;;;;14.80;5.70;;;;;;;0.88;82.73;101547.38;130059;1270;108813;-77
2022/01/18 10:18:36;;;;;;;16.40;5.70;;;;;;;0.91;82.43;101549.86;129989;1270;108731;-77
2022/01/18 10:21:47;;;;;;;350.60;245.10;;;;;;;0.89;82.08;101552.22;130010;1270;107800;-76
2022/01/18 10:24:53;;;;;;;12.50;5.60;;;;;;;0.88;82.24;101557.36;129932;1270;108794;-77
2022/01/18 10:27:58;;;;;;;24.20;10.90;;;;;;;0.92;82.30;101555.43;129971;1270;109148;-77
2022/01/18 10:31:31;;;;;;;14.30;5.80;;;;;;;0.99;81.92;101566.04;129960;1270;108736;-77
2022/01/18 10:35:03;;;;;;;;;;;;;;;1.04;81.77;101571.29;129989;1270;108711;-77
2022/01/18 10:38:19;;;;;;;12.50;4.90;;;;;;;1.12;82.01;101575.17;129955;1270;109824;-77
2022/01/18 10:41:28;;;;;;;14.20;5.20;;;;;;;1.19;81.70;101579.44;130015;1270;108712;-77
2022/01/18 10:44:34;;;;;;;15.70;5.50;;;;;;;1.24;81.47;101581.73;130002;1270;108849;-78
2022/01/18 10:47:49;;;;;;;18.00;5.50;;;;;;;1.30;81.37;101584.27;130021;1270;108947;-77
2022/01/18 10:50:55;;;;;;;15.40;6.50;;;;;;;1.34;80.66;101591.48;130003;1269;109906;-77
2022/01/18 10:54:02;;;;;;;18.00;5.80;;;;;;;1.38;81.28;101597.64;130008;1270;108737;-77
2022/01/18 10:57:11;;;;;;;15.30;5.60;;;;;;;1.43;80.90;101594.98;129959;1270;108860;-78
2022/01/18 11:00:21;;;;;;;11.30;4.30;;;;;;;1.41;80.21;101603.66;130001;1270;108730;-77
2022/01/18 11:03:27;;;;;;;13.00;4.80;;;;;;;1.44;81.02;101592.99;129971;1270;108850;-78
2022/01/18 11:06:33;;;;;;;12.90;4.80;;;;;;;1.52;80.86;101597.21;130090;1270;108768;-78
2022/01/18 11:09:38;;;;;;;12.80;4.90;;;;;;;1.56;80.39;101597.61;129986;1270;108768;-78
2022/01/18 11:12:52;;;;;;;17.20;6.00;;;;;;;1.58;80.69;101602.78;129984;1270;108749;-77
2022/01/18 11:16:04;;;;;;;23.20;7.50;;;;;;;1.61;80.41;101605.84;130041;1270;108627;-78
2022/01/18 11:19:18;;;;;;;25.50;8.10;;;;;;;1.58;80.35;101606.98;129957;1270;108750;-78
2022/01/18 11:22:26;;;;;;;32.60;10.20;;;;;;;1.64;80.72;101606.40;130332;1270;108547;-78
2022/01/18 11:25:33;;;;;;;20.70;6.80;;;;;;;1.71;79.92;101605.22;130170;1270;108710;-76
2022/01/18 11:28:39;;;;;;;18.70;7.30;;;;;;;1.74;80.17;101604.24;130235;1270;108597;-77
2022/01/18 11:31:47;;;;;;;25.20;8.10;;;;;;;1.74;79.75;101601.80;130210;1270;108789;-78
2022/01/18 11:35:05;;;;;;;18.70;9.30;;;;;;;1.78;80.07;101587.79;130284;1269;108735;-78
2022/01/18 11:38:17;;;;;;;18.50;7.10;;;;;;;1.78;79.97;101590.40;130222;1270;108746;-77
2022/01/18 11:41:27;;;;;;;11.40;5.30;;;;;;;1.79;79.96;101589.86;130223;1270;108686;-77
2022/01/18 11:44:33;;;;;;;13.50;6.00;;;;;;;1.78;79.41;101593.20;130254;1270;107666;-77
2022/01/18 11:47:38;;;;;;;11.90;5.70;;;;;;;1.80;79.59;101595.59;130196;1270;108594;-79
2022/01/18 11:50:47;;;;;;;13.90;5.40;;;;;;;1.82;79.62;101600.91;130238;1269;108810;-78
2022/01/18 11:54:06;;;;;;;15.30;5.60;;;;;;;1.82;79.42;101601.63;130087;1270;107744;-78
2022/01/18 11:57:36;;;;;;;11.20;5.20;;;;;;;1.80;79.52;101599.42;129977;1270;108501;-77
2022/01/18 12:00:52;;;;;;;10.90;4.40;;;;;;;1.83;79.87;101605.83;130237;1270;106719;-77
2022/01/18 12:03:57;;;;;;;14.10;5.30;;;;;;;1.90;80.22;101605.34;130274;1270;106719;-78
2022/01/18 12:07:03;;;;;;;15.60;5.40;;;;;;;1.99;80.05;101605.51;130106;1269;108778;-78
2022/01/18 12:10:29;;;;;;;11.60;5.10;;;;;;;2.04;79.80;101612.45;130005;1270;106757;-78
2022/01/18 12:13:44;;;;;;;13.70;5.30;;;;;;;2.04;79.07;101615.98;130136;1270;107105;-77
2022/01/18 12:16:52;;;;;;;12.50;5.50;;;;;;;2.01;79.56;101607.70;130169;1269;108670;-77
2022/01/18 12:19:57;;;;;;;14.10;6.30;;;;;;;1.99;79.46;101615.31;130103;1270;107752;-77
2022/01/18 12:23:05;;;;;;;13.10;5.40;;;;;;;1.99;79.66;101610.27;130188;1269;108885;-78
2022/01/18 12:26:21;;;;;;;28.90;10.80;;;;;;;1.97;79.26;101616.81;129967;1269;109696;-77
2022/01/18 12:29:48;;;;;;;26.30;11.50;;;;;;;1.94;79.13;101618.14;129957;1270;108726;-78
2022/01/18 12:33:17;;;;;;;18.30;6.80;;;;;;;1.97;79.67;101607.86;130045;1270;107520;-77
2022/01/18 12:36:29;;;;;;;18.30;7.30;;;;;;;1.99;79.16;101607.77;130120;1270;109053;-78
2022/01/18 12:40:07;;;;;;;28.00;10.70;;;;;;;2.00;79.58;101612.31;130219;1270;109597;-78
2022/01/18 12:46:38;;;;;;;12.00;4.80;;;;;;;1.93;79.20;101629.78;130253;1270;108764;-78
2022/01/18 12:49:48;;;;;;;16.50;7.20;;;;;;;1.95;79.48;101627.27;130224;1270;109144;-77
2022/01/18 12:52:56;;;;;;;15.40;6.00;;;;;;;2.03;79.73;101629.20;130212;1270;106607;-78
2022/01/18 12:56:04;;;;;;;17.10;6.70;;;;;;;2.03;78.69;101629.21;130236;1269;108798;-78
2022/01/18 12:59:09;;;;;;;15.20;6.40;;;;;;;1.97;78.72;101632.42;130195;1270;108746;-77
2022/01/18 13:02:23;;;;;;;15.50;6.30;;;;;;;1.91;78.73;101635.31;130210;1270;108742;-77
2022/01/18 13:05:38;;;;;;;13.50;5.40;;;;;;;1.87;78.73;101638.46;130188;1270;108769;-77
2022/01/18 13:08:48;;;;;;;18.00;9.40;;;;;;;1.84;78.83;101639.29;130201;1268;106867;-77
2022/01/18 13:12:03;;;;;;;11.00;5.10;;;;;;;1.89;79.22;101639.93;130239;1270;108836;-77
2022/01/18 13:15:13;;;;;;;13.00;5.30;;;;;;;1.98;79.05;101637.48;130251;1270;108583;-77
2022/01/18 13:25:13;;;;;;;22.10;10.10;;;;;;;2.02;78.89;101659.09;130038;1270;109842;-77
2022/01/18 13:28:19;;;;;;;22.20;11.00;;;;;;;1.94;78.84;101663.95;130005;1270;108713;-77
2022/01/18 13:31:27;;;;;;;41.40;23.90;;;;;;;1.88;79.36;101670.68;129973;1269;108934;-78
2022/01/18 13:34:34;;;;;;;28.10;14.60;;;;;;;1.87;79.44;101682.13;129982;1270;108878;-77
2022/01/18 13:37:40;;;;;;;35.10;20.80;;;;;;;1.89;79.42;101682.26;130251;1268;108838;-77
2022/01/18 13:40:47;;;;;;;14.50;7.40;;;;;;;1.92;79.42;101684.02;130200;1270;108765;-77
2022/01/18 13:43:53;;;;;;;23.90;11.60;;;;;;;1.94;78.82;101682.73;129977;1270;108758;-78
2022/01/18 13:47:13;;;;;;;16.20;9.50;;;;;;;1.98;79.20;101685.41;130269;1270;108660;-77
2022/01/18 13:50:50;;;;;;;22.90;10.10;;;;;;;2.03;79.25;101689.25;130031;1270;108638;-77
2022/01/18 13:54:04;;;;;;;25.20;16.80;;;;;;;2.03;79.32;101698.33;129468;1275;108643;-77
2022/01/18 13:57:10;;;;;;;17.30;8.40;;;;;;;2.01;79.31;101702.84;130191;1270;108783;-77
2022/01/18 14:00:17;;;;;;;38.80;22.30;;;;;;;1.94;79.34;101703.48;129966;1271;109092;-77
2022/01/18 14:03:37;;;;;;;15.00;7.30;;;;;;;1.86;79.09;101707.29;129917;1271;108812;-77
2022/01/18 14:06:46;;;;;;;27.80;16.20;;;;;;;1.77;79.50;101712.52;130008;1271;108702;-78
2022/01/18 14:09:59;;;;;;;32.30;16.90;;;;;;;1.80;79.89;101716.64;129850;1272;108107;-77
2022/01/18 14:13:05;;;;;;;51.10;29.70;;;;;;;1.83;79.76;101719.69;129975;1271;108749;-77
2022/01/18 14:16:26;;;;;;;32.70;18.30;;;;;;;1.81;79.76;101726.59;130073;1271;108324;-77
2022/01/18 14:19:33;;;;;;;134.60;65.30;;;;;;;1.82;79.85;101726.92;129979;1271;108684;-78
2022/01/18 14:22:39;;;;;;;36.40;13.50;;;;;;;1.81;79.84;101726.94;130022;1271;107672;-77
2022/01/18 14:25:46;;;;;;;23.50;12.40;;;;;;;1.77;79.91;101729.91;130211;1270;109047;-77
2022/01/18 14:29:02;;;;;;;31.20;13.00;;;;;;;1.72;80.05;101732.40;130041;1271;108512;-78
2022/01/18 14:32:11;;;;;;;30.50;15.40;;;;;;;1.68;80.14;101739.75;129982;1271;107742;-77
2022/01/18 14:35:18;;;;;;;204.30;108.60;;;;;;;1.70;80.23;101736.50;130134;1271;109924;-77
2022/01/18 14:38:30;;;;;;;52.20;26.80;;;;;;;1.72;80.39;101736.95;130125;1271;107334;-77
2022/01/18 14:41:35;;;;;;;35.00;20.10;;;;;;;1.76;80.40;101740.64;130115;1271;108674;-78
2022/01/18 14:45:00;;;;;;;32.10;13.10;;;;;;;1.76;80.25;101743.44;130215;1270;108187;-78
2022/01/18 14:48:11;;;;;;;36.50;18.10;;;;;;;1.66;80.10;101740.70;130350;1271;108694;-78
2022/01/18 14:51:17;;;;;;;32.40;18.80;;;;;;;1.57;80.35;101741.73;130256;1271;107016;-76
2022/01/18 14:54:22;;;;;;;29.40;14.20;;;;;;;1.47;80.54;101737.90;129975;1271;107796;-77
2022/01/18 14:57:28;;;;;;;31.40;15.00;;;;;;;1.40;80.72;101749.75;130117;1271;108959;-77
2022/01/18 15:00:35;;;;;;;53.20;28.70;;;;;;;1.34;80.73;101753.14;130276;1271;108723;-74
2022/01/18 15:03:41;;;;;;;166.50;84.40;;;;;;;1.38;80.87;101760.69;130270;1271;108590;-75
2022/01/18 15:06:46;;;;;;;43.00;22.00;;;;;;;1.44;80.82;101752.59;130488;1268;109026;-73